Coffee City, Texas
Current Conditions -  °F | °C
As of 1:55 AM on Friday 24 Oct 2014 (Local Time) from KPSN Reporting Station
Clear Clear  
Wind Chill: 59°   Ceiling: Unl
Heat Index: 59°   Visibility: 7mi
Dew Point: 55°   Wind: 0mph
Humidity: 89%   Direction: NA
Pressure: 30.14"   Gusts: NA
Location:  32.0056°N, 95.5543°W
Report Text: KPSN 240655Z AUTO 00000KT 7SM CLR 15/12 A3014 RMK AO2 T01480130
Loading
Personal Weather Stations






























Interactive Weather Map
Tropical Storm Tracking
New forecast layout! Learn more

10-Day Weather Forecast

Advertisements
Track Severe Weather on mobile